Time;durP1;ratioP1;P1;durP2;ratioP2;P2;SDS_P1;SDS_P2;PMS_P1;PMS_P2;Temp;Humidity;BMP_temperature;BMP_pressure;BME280_temperature;BME280_humidity;BME280_pressure;Samples;Min_cycle;Max_cycle;Signal;HPM_P1;HPM_P2
2023/02/04 00:01:56;;;;;;;10.60;7.68;;;7.40;41.70;;;;;;7361299;19;20011;-77
2023/02/04 00:04:26;;;;;;;11.10;7.90;;;7.30;43.10;;;;;;7361950;19;20055;-76
2023/02/04 00:06:56;;;;;;;10.60;7.47;;;7.30;44.10;;;;;;7361718;19;20015;-76
2023/02/04 00:09:28;;;;;;;10.13;7.40;;;7.30;44.90;;;;;;7362476;19;20017;-76
2023/02/04 00:11:58;;;;;;;10.25;7.32;;;7.30;45.60;;;;;;7365013;19;20031;-76
2023/02/04 00:14:28;;;;;;;10.38;7.85;;;7.20;45.90;;;;;;7385202;19;20035;-76
2023/02/04 00:16:58;;;;;;;10.07;7.07;;;7.20;46.60;;;;;;7364883;19;20090;-77
2023/02/04 00:19:28;;;;;;;10.98;7.40;;;7.20;46.50;;;;;;7380590;19;20019;-76
2023/02/04 00:21:57;;;;;;;10.02;6.20;;;7.30;45.90;;;;;;7394813;19;20010;-76
2023/02/04 00:24:30;;;;;;;10.20;6.95;;;7.30;45.00;;;;;;7395118;19;20391;-75
2023/02/04 00:27:00;;;;;;;11.13;6.95;;;7.30;45.20;;;;;;7363555;19;20090;-76
2023/02/04 00:29:29;;;;;;;13.10;6.70;;;7.30;45.00;;;;;;7383430;19;20023;-76
2023/02/04 00:31:59;;;;;;;12.18;6.72;;;7.30;45.00;;;;;;7362636;19;20376;-76
2023/02/04 00:34:29;;;;;;;9.82;6.72;;;7.30;44.10;;;;;;7361762;19;20014;-76
2023/02/04 00:37:00;;;;;;;8.23;5.18;;;7.30;44.00;;;;;;7368107;19;20018;-75
2023/02/04 00:39:32;;;;;;;8.00;5.45;;;7.30;41.70;;;;;;7366551;19;20010;-75
2023/02/04 00:42:02;;;;;;;8.85;4.97;;;7.30;40.00;;;;;;7369163;19;20018;-75
2023/02/04 00:44:32;;;;;;;7.07;4.35;;;7.40;36.60;;;;;;7389733;19;20022;-74
2023/02/04 00:47:01;;;;;;;7.72;4.22;;;7.50;34.20;;;;;;7366495;19;20015;-75
2023/02/04 00:49:31;;;;;;;7.13;4.00;;;7.50;33.60;;;;;;7368895;19;20011;-76
2023/02/04 00:52:01;;;;;;;5.90;3.65;;;7.50;32.90;;;;;;7368014;19;20011;-76
2023/02/04 00:54:34;;;;;;;8.68;4.63;;;7.40;33.70;;;;;;7367098;19;20070;-75
2023/02/04 00:57:04;;;;;;;4.90;3.80;;;7.40;34.30;;;;;;7368744;19;20773;-76
2023/02/04 00:59:33;;;;;;;6.85;4.30;;;7.40;34.50;;;;;;7386761;19;20118;-76
2023/02/04 01:02:03;;;;;;;12.52;4.43;;;7.40;35.50;;;;;;7366997;19;20010;-76
2023/02/04 01:04:33;;;;;;;9.32;4.28;;;7.40;35.90;;;;;;7368274;19;20010;-76
2023/02/04 01:07:03;;;;;;;8.02;3.33;;;7.40;35.30;;;;;;7366577;19;20006;-76
2023/02/04 01:09:36;;;;;;;8.20;3.60;;;7.40;31.50;;;;;;7366139;19;20015;-76
2023/02/04 01:12:06;;;;;;;8.85;3.63;;;7.50;30.00;;;;;;7370165;19;20487;-76
2023/02/04 01:14:36;;;;;;;6.20;3.67;;;7.40;31.20;;;;;;7392942;19;20364;-75
2023/02/04 01:17:05;;;;;;;6.78;4.25;;;7.40;31.20;;;;;;7366697;19;20011;-76
2023/02/04 01:19:35;;;;;;;9.10;4.38;;;7.40;31.50;;;;;;7365010;19;20018;-76
2023/02/04 01:22:05;;;;;;;7.53;3.35;;;7.40;32.40;;;;;;7367139;19;20025;-76
2023/02/04 01:24:37;;;;;;;4.00;3.00;;;7.40;30.90;;;;;;7366131;19;20016;-76
2023/02/04 01:27:07;;;;;;;8.20;4.03;;;7.30;33.00;;;;;;7366201;19;20021;-76
2023/02/04 01:29:37;;;;;;;7.82;3.72;;;7.30;35.80;;;;;;7385776;19;20370;-76
2023/02/04 01:32:07;;;;;;;6.22;3.60;;;7.20;37.80;;;;;;7366310;19;20164;-76
2023/02/04 01:34:37;;;;;;;6.70;3.20;;;7.20;39.20;;;;;;7366049;19;20011;-75
2023/02/04 01:37:06;;;;;;;6.43;3.70;;;7.20;39.20;;;;;;7366977;19;20017;-76
2023/02/04 01:39:39;;;;;;;4.30;3.20;;;7.20;39.60;;;;;;7365136;19;20007;-77
2023/02/04 01:42:09;;;;;;;7.00;3.90;;;7.20;38.30;;;;;;7366269;19;20003;-76
2023/02/04 01:44:39;;;;;;;6.70;3.85;;;7.20;37.50;;;;;;7388054;19;20030;-77
2023/02/04 01:47:09;;;;;;;9.48;3.53;;;7.30;35.80;;;;;;7364695;19;20171;-77
2023/02/04 01:49:39;;;;;;;9.32;3.58;;;7.30;35.70;;;;;;7366965;19;20011;-77
2023/02/04 01:52:10;;;;;;;6.53;2.97;;;7.30;33.60;;;;;;7366409;19;20513;-77
2023/02/04 01:54:46;;;;;;;6.68;3.42;;;7.30;32.50;;;;;;7366339;19;20011;-77
2023/02/04 01:57:17;;;;;;;5.82;3.03;;;7.30;32.50;;;;;;7366295;19;20014;-77
2023/02/04 01:59:51;;;;;;;7.90;2.95;;;7.30;31.40;;;;;;7384982;19;20021;-77
2023/02/04 02:02:43;;;;;;;7.88;3.35;;;7.40;30.80;;;;;;7365780;19;20017;-77
2023/02/04 02:05:17;;;;;;;4.97;2.58;;;7.30;31.50;;;;;;7365324;19;20034;-76
2023/02/04 02:07:49;;;;;;;6.93;2.90;;;7.40;31.00;;;;;;7367876;19;20006;-77
2023/02/04 02:10:22;;;;;;;5.85;2.67;;;7.30;31.50;;;;;;7366489;19;20014;-77
2023/02/04 02:12:52;;;;;;;5.75;2.60;;;7.40;29.40;;;;;;7368689;19;20010;-77
2023/02/04 02:15:23;;;;;;;4.55;2.35;;;7.40;29.70;;;;;;7365659;19;20022;-77
2023/02/04 02:17:54;;;;;;;4.00;2.53;;;7.40;30.30;;;;;;7364282;19;20021;-77
2023/02/04 02:20:28;;;;;;;4.63;2.47;;;7.30;31.50;;;;;;7385614;19;20502;-76
2023/02/04 02:23:05;;;;;;;4.25;2.35;;;7.30;31.50;;;;;;7367065;19;20018;-77
2023/02/04 02:25:38;;;;;;;6.65;3.05;;;7.30;32.30;;;;;;7366754;19;20014;-77
2023/02/04 02:28:12;;;;;;;5.82;2.60;;;7.30;31.80;;;;;;7364439;19;20094;-76
2023/02/04 02:30:44;;;;;;;3.78;2.63;;;7.30;31.50;;;;;;7363925;19;20133;-77
2023/02/04 02:33:16;;;;;;;2.90;2.20;;;7.30;31.60;;;;;;7364721;19;20021;-75
2023/02/04 02:35:47;;;;;;;6.07;2.50;;;7.20;33.00;;;;;;7386221;19;20021;-77
2023/02/04 02:38:18;;;;;;;7.40;2.72;;;7.20;35.00;;;;;;7364116;19;20061;-77
2023/02/04 02:40:52;;;;;;;7.03;3.13;;;7.20;35.60;;;;;;7363771;19;20006;-77
2023/02/04 02:43:25;;;;;;;5.15;2.50;;;7.10;35.60;;;;;;7363854;19;20018;-77
2023/02/04 02:45:56;;;;;;;7.05;2.38;;;7.10;35.80;;;;;;7364412;19;20025;-78
2023/02/04 02:48:26;;;;;;;5.47;2.17;;;7.10;31.40;;;;;;7364753;19;20038;-77
2023/02/04 02:50:56;;;;;;;7.60;2.20;;;7.00;27.70;;;;;;7364409;19;20019;-76
2023/02/04 02:53:26;;;;;;;7.57;2.55;;;7.00;27.60;;;;;;7385413;19;20070;-77
2023/02/04 02:56:00;;;;;;;7.75;2.50;;;7.00;26.80;;;;;;7363549;19;20010;-77
2023/02/04 02:58:31;;;;;;;;;;;7.00;25.80;;;;;;7360523;19;20022;-76
2023/02/04 03:01:03;;;;;;;9.30;3.05;;;7.00;25.60;;;;;;7363582;19;19950;-76
2023/02/04 03:03:35;;;;;;;10.85;3.40;;;6.90;24.40;;;;;;7365668;19;20014;-77
2023/02/04 03:06:10;;;;;;;10.05;2.83;;;6.90;23.80;;;;;;7367482;19;20070;-77
2023/02/04 03:08:40;;;;;;;8.57;2.97;;;6.90;20.80;;;;;;7383155;19;20022;-78
2023/02/04 03:11:13;;;;;;;12.55;3.38;;;6.90;20.80;;;;;;7362881;19;20038;-78
2023/02/04 03:13:43;;;;;;;8.52;3.00;;;6.90;19.30;;;;;;7364355;19;20006;-78
2023/02/04 03:16:14;;;;;;;9.38;3.40;;;6.90;19.30;;;;;;7362915;19;20363;-78
2023/02/04 03:18:44;;;;;;;10.52;2.80;;;6.90;18.90;;;;;;7362077;19;20018;-78
2023/02/04 03:21:14;;;;;;;11.77;3.60;;;6.80;17.20;;;;;;7362775;19;20019;-77
2023/02/04 03:23:43;;;;;;;5.93;2.88;;;6.80;17.90;;;;;;7385014;19;20014;-77
2023/02/04 03:26:16;;;;;;;9.90;3.67;;;6.80;18.70;;;;;;7362525;19;20011;-78
2023/02/04 03:28:45;;;;;;;7.13;2.83;;;6.80;19.70;;;;;;7361252;19;20351;-78
2023/02/04 03:31:15;;;;;;;8.75;3.15;;;6.80;20.70;;;;;;7363131;19;20015;-77
2023/02/04 03:33:46;;;;;;;6.53;2.78;;;6.70;22.00;;;;;;7363063;19;20018;-78
2023/02/04 03:36:15;;;;;;;7.88;2.72;;;6.70;23.00;;;;;;7363911;19;20022;-78
2023/02/04 03:38:45;;;;;;;9.85;3.33;;;6.70;23.60;;;;;;7386118;19;20018;-78
2023/02/04 03:41:17;;;;;;;5.63;2.60;;;6.70;24.10;;;;;;7365419;19;20166;-78
2023/02/04 03:43:47;;;;;;;5.65;2.55;;;6.70;24.80;;;;;;7362716;19;20022;-78
2023/02/04 03:46:17;;;;;;;9.23;2.70;;;6.70;25.40;;;;;;7362126;19;20014;-77
2023/02/04 03:48:47;;;;;;;9.43;3.38;;;6.70;25.50;;;;;;7391271;19;20022;-78
2023/02/04 03:51:17;;;;;;;8.63;3.08;;;6.70;25.60;;;;;;7395976;19;20031;-78
2023/02/04 03:53:47;;;;;;;10.55;2.63;;;6.70;24.30;;;;;;7419595;19;20009;-77
2023/02/04 03:56:19;;;;;;;12.48;3.58;;;6.70;24.20;;;;;;7382211;19;20082;-78
2023/02/04 03:58:49;;;;;;;7.25;2.22;;;6.70;25.30;;;;;;7362193;19;20018;-78
2023/02/04 04:01:19;;;;;;;7.72;2.83;;;6.60;25.70;;;;;;7364757;19;20013;-78
2023/02/04 04:03:49;;;;;;;9.05;3.00;;;6.60;25.50;;;;;;7362372;19;20029;-79
2023/02/04 04:06:18;;;;;;;10.27;2.95;;;6.60;26.10;;;;;;7361199;19;20014;-78
2023/02/04 04:08:48;;;;;;;8.73;2.53;;;6.60;26.00;;;;;;7381268;19;20014;-78
2023/02/04 04:11:21;;;;;;;7.60;2.65;;;6.60;26.50;;;;;;7360722;19;20389;-78
2023/02/04 04:13:51;;;;;;;14.55;3.17;;;6.60;25.90;;;;;;7364376;19;20011;-78
2023/02/04 04:16:21;;;;;;;9.90;3.05;;;6.60;25.60;;;;;;7362159;19;20018;-78
2023/02/04 04:18:51;;;;;;;11.40;3.15;;;6.60;26.10;;;;;;7361607;19;20431;-78
2023/02/04 04:21:21;;;;;;;7.95;2.60;;;6.60;27.10;;;;;;7361327;19;19996;-76
2023/02/04 04:23:51;;;;;;;7.53;2.80;;;6.60;27.10;;;;;;7382281;19;20014;-78
2023/02/04 04:26:23;;;;;;;5.18;2.70;;;6.50;27.40;;;;;;7360702;19;20014;-78
2023/02/04 04:28:53;;;;;;;8.13;2.80;;;6.50;27.40;;;;;;7358292;19;20022;-78
2023/02/04 04:31:23;;;;;;;7.65;2.42;;;6.50;28.60;;;;;;7361753;19;20029;-79
2023/02/04 04:33:53;;;;;;;8.30;2.83;;;6.50;29.70;;;;;;7360226;19;20021;-78
2023/02/04 04:36:22;;;;;;;7.93;2.70;;;6.40;30.70;;;;;;7360574;19;20018;-78
2023/02/04 04:38:52;;;;;;;9.68;2.55;;;6.40;30.80;;;;;;7381169;19;20014;-78
2023/02/04 04:41:24;;;;;;;6.65;2.75;;;6.40;31.70;;;;;;7359825;19;20116;-78
2023/02/04 04:43:54;;;;;;;10.85;3.20;;;6.40;32.80;;;;;;7360545;19;20086;-78
2023/02/04 04:46:24;;;;;;;6.22;2.80;;;6.40;32.50;;;;;;7360641;19;20021;-78
2023/02/04 04:48:54;;;;;;;6.95;3.00;;;6.30;32.50;;;;;;7361300;19;20014;-78
2023/02/04 04:51:24;;;;;;;11.90;3.33;;;6.30;33.20;;;;;;7359917;19;20053;-79
2023/02/04 04:53:54;;;;;;;9.73;3.00;;;6.30;33.50;;;;;;7381406;19;20021;-79
2023/02/04 04:56:26;;;;;;;9.95;3.55;;;6.30;33.90;;;;;;7361602;19;20007;-79
2023/02/04 04:58:56;;;;;;;9.13;3.28;;;6.20;34.30;;;;;;7358923;19;20026;-79
2023/02/04 05:01:26;;;;;;;13.70;4.05;;;6.20;34.70;;;;;;7359767;19;20011;-79
2023/02/04 05:03:56;;;;;;;16.00;3.80;;;6.20;34.80;;;;;;7359909;19;20015;-79
2023/02/04 05:06:26;;;;;;;11.15;3.47;;;6.20;35.10;;;;;;7359635;19;20523;-78
2023/02/04 05:08:56;;;;;;;14.25;4.03;;;6.20;35.40;;;;;;7380227;19;20130;-79
2023/02/04 05:11:28;;;;;;;10.38;4.05;;;6.10;35.60;;;;;;7359313;19;20029;-79
2023/02/04 05:13:58;;;;;;;13.30;3.97;;;6.20;36.00;;;;;;7362131;19;20014;-79
2023/02/04 05:16:28;;;;;;;12.52;4.45;;;6.10;36.00;;;;;;7359752;19;20014;-78
2023/02/04 05:18:58;;;;;;;13.75;4.25;;;6.10;36.30;;;;;;7358826;19;20042;-79
2023/02/04 05:21:28;;;;;;;12.35;4.45;;;6.10;36.80;;;;;;7361043;19;20015;-79
2023/02/04 05:23:57;;;;;;;14.98;4.90;;;6.10;37.50;;;;;;7388145;19;20029;-79
2023/02/04 05:26:30;;;;;;;10.90;4.28;;;6.10;37.80;;;;;;7365956;19;20017;-79
2023/02/04 05:29:01;;;;;;;9.30;4.65;;;6.00;38.30;;;;;;7364661;19;20130;-78
2023/02/04 05:31:31;;;;;;;12.50;4.30;;;6.00;38.90;;;;;;7365530;19;20021;-79
2023/02/04 05:34:01;;;;;;;12.52;5.00;;;6.00;38.90;;;;;;7367157;19;20018;-78
2023/02/04 05:36:31;;;;;;;16.80;4.90;;;6.00;38.90;;;;;;7366168;19;20486;-79
2023/02/04 05:39:01;;;;;;;9.73;4.93;;;6.00;38.90;;;;;;7370560;19;20115;-79
2023/02/04 05:41:33;;;;;;;11.77;4.72;;;6.00;39.50;;;;;;7387228;19;20021;-78
2023/02/04 05:44:04;;;;;;;11.95;4.68;;;6.00;39.60;;;;;;7365288;19;20537;-78
2023/02/04 05:46:35;;;;;;;13.82;4.93;;;5.90;40.10;;;;;;7366048;19;20029;-78
2023/02/04 05:49:06;;;;;;;11.63;5.00;;;5.90;40.20;;;;;;7365715;19;20015;-79
2023/02/04 05:51:36;;;;;;;15.98;6.38;;;5.90;40.60;;;;;;7365001;19;20081;-79
2023/02/04 05:54:06;;;;;;;12.63;4.72;;;5.90;40.60;;;;;;7368625;19;20090;-80
2023/02/04 05:56:39;;;;;;;14.52;5.57;;;5.90;40.90;;;;;;7391001;19;20022;-79
2023/02/04 05:59:09;;;;;;;14.13;6.28;;;5.90;41.00;;;;;;7391936;19;20034;-79
2023/02/04 06:01:38;;;;;;;15.13;6.35;;;5.80;41.00;;;;;;7392947;19;20019;-79
2023/02/04 06:04:09;;;;;;;15.65;5.30;;;5.90;41.70;;;;;;7393390;19;20024;-78
2023/02/04 06:06:39;;;;;;;16.27;5.68;;;5.80;42.00;;;;;;7393115;19;20046;-78
2023/02/04 06:09:09;;;;;;;13.23;5.18;;;5.80;42.80;;;;;;7391592;19;20038;-78
2023/02/04 06:11:41;;;;;;;13.98;6.15;;;5.80;42.90;;;;;;7390761;19;20502;-78
2023/02/04 06:14:14;;;;;;;15.85;5.63;;;5.70;43.20;;;;;;7393304;19;20370;-78
2023/02/04 06:16:44;;;;;;;20.10;6.25;;;5.70;44.40;;;;;;7392799;19;20015;-78
2023/02/04 06:19:13;;;;;;;12.85;5.22;;;5.70;44.40;;;;;;7391148;19;20035;-79
2023/02/04 06:21:43;;;;;;;16.35;5.95;;;5.60;44.30;;;;;;7392560;19;20022;-79
2023/02/04 06:24:13;;;;;;;17.70;6.13;;;5.60;44.70;;;;;;7392011;19;20510;-79
2023/02/04 06:26:45;;;;;;;17.25;6.00;;;5.60;45.00;;;;;;7392076;19;20015;-78
2023/02/04 06:29:15;;;;;;;14.40;6.82;;;5.60;45.10;;;;;;7390639;19;20481;-79
2023/02/04 06:31:45;;;;;;;20.15;6.95;;;5.60;45.70;;;;;;7390432;19;20735;-79
2023/02/04 06:34:15;;;;;;;17.30;6.75;;;5.60;45.90;;;;;;7391430;19;20422;-79
2023/02/04 06:36:45;;;;;;;13.95;7.10;;;5.60;46.40;;;;;;7392007;19;20020;-79
2023/02/04 06:39:15;;;;;;;18.15;6.78;;;5.60;46.10;;;;;;7390427;19;20029;-80
2023/02/04 06:41:48;;;;;;;15.90;6.45;;;5.50;46.20;;;;;;7391430;19;20011;-79
2023/02/04 06:44:18;;;;;;;17.17;5.95;;;5.60;46.20;;;;;;7391710;19;20031;-79
2023/02/04 06:46:47;;;;;;;15.95;5.20;;;5.60;45.90;;;;;;7391440;19;20011;-80
2023/02/04 06:49:17;;;;;;;16.40;5.80;;;5.60;45.70;;;;;;7390049;19;20011;-79
2023/02/04 06:51:48;;;;;;;22.60;7.10;;;5.70;45.70;;;;;;7389638;19;20025;-80
2023/02/04 06:54:18;;;;;;;16.67;6.13;;;5.70;45.30;;;;;;7389666;19;20090;-79
2023/02/04 06:56:50;;;;;;;16.10;6.78;;;5.70;45.10;;;;;;7389723;19;20042;-79
2023/02/04 06:59:20;;;;;;;18.02;6.05;;;5.70;45.00;;;;;;7389235;19;20018;-78
2023/02/04 07:01:50;;;;;;;17.25;5.40;;;5.70;44.50;;;;;;7391195;19;20402;-79
2023/02/04 07:04:19;;;;;;;16.45;6.40;;;5.70;44.40;;;;;;7390792;19;20015;-80
2023/02/04 07:06:49;;;;;;;24.40;5.90;;;5.70;43.40;;;;;;7392386;19;20014;-79
2023/02/04 07:09:19;;;;;;;15.25;6.00;;;5.70;43.40;;;;;;7391085;19;20010;-79
2023/02/04 07:11:52;;;;;;;11.77;5.80;;;5.70;42.80;;;;;;7390052;19;20021;-79
2023/02/04 07:14:22;;;;;;;14.45;5.43;;;5.70;42.80;;;;;;7394391;19;20018;-79
2023/02/04 07:16:52;;;;;;;15.00;6.10;;;5.80;42.90;;;;;;7396773;19;20010;-79
2023/02/04 07:19:22;;;;;;;17.40;6.38;;;5.80;41.80;;;;;;7383644;19;20598;-79
2023/02/04 07:21:55;;;;;;;14.35;5.63;;;5.70;40.80;;;;;;7425102;19;19999;-79
2023/02/04 07:24:25;;;;;;;13.77;5.43;;;5.70;39.90;;;;;;7390478;19;20019;-79
2023/02/04 07:26:58;;;;;;;17.65;6.10;;;5.70;39.50;;;;;;7373972;19;20019;-79
2023/02/04 07:29:30;;;;;;;16.00;5.60;;;5.70;39.10;;;;;;7361020;19;20025;-79
2023/02/04 07:32:00;;;;;;;12.75;5.38;;;5.80;38.70;;;;;;7382397;19;20089;-80
2023/02/04 07:34:30;;;;;;;15.75;5.93;;;5.70;38.60;;;;;;7362633;19;20097;-79
2023/02/04 07:37:00;;;;;;;21.88;6.30;;;5.70;38.30;;;;;;7362100;19;20014;-79
2023/02/04 07:39:30;;;;;;;16.38;5.20;;;5.70;36.10;;;;;;7360514;19;20038;-79
2023/02/04 07:42:02;;;;;;;14.85;4.82;;;5.70;34.50;;;;;;7362096;19;20032;-78
2023/02/04 07:44:32;;;;;;;14.85;4.60;;;5.70;32.20;;;;;;7360753;19;20018;-77
2023/02/04 07:47:02;;;;;;;19.23;5.05;;;5.70;31.00;;;;;;7383204;19;20010;-79
2023/02/04 07:49:32;;;;;;;14.73;4.65;;;5.70;31.00;;;;;;7359876;19;20021;-79
2023/02/04 07:52:02;;;;;;;19.70;5.60;;;5.70;30.20;;;;;;7359987;19;20021;-78
2023/02/04 07:54:32;;;;;;;15.05;5.70;;;5.70;30.80;;;;;;7361775;19;20389;-79
2023/02/04 07:57:04;;;;;;;13.52;5.35;;;5.70;30.30;;;;;;7361325;19;20353;-80
2023/02/04 07:59:34;;;;;;;21.42;5.95;;;5.70;30.20;;;;;;7360655;19;20015;-79
2023/02/04 08:02:04;;;;;;;12.77;4.63;;;5.70;30.10;;;;;;7381577;19;20017;-79
2023/02/04 08:04:34;;;;;;;17.40;5.85;;;5.70;29.50;;;;;;7382061;19;20109;-78
2023/02/04 08:07:03;;;;;;;14.18;5.82;;;5.80;29.80;;;;;;7360591;19;20832;-79
2023/02/04 08:09:33;;;;;;;18.67;6.13;;;5.80;29.50;;;;;;7359594;19;20019;-79
2023/02/04 08:12:06;;;;;;;16.40;6.53;;;5.80;29.70;;;;;;7360063;19;20019;-79
2023/02/04 08:14:36;;;;;;;17.65;5.40;;;5.80;30.20;;;;;;7363384;19;20031;-79
2023/02/04 08:17:06;;;;;;;17.85;6.05;;;5.80;30.00;;;;;;7363289;19;20470;-79
2023/02/04 08:19:36;;;;;;;17.15;5.50;;;5.80;29.90;;;;;;7387951;19;20244;-78
2023/02/04 08:22:05;;;;;;;15.38;6.07;;;5.80;30.20;;;;;;7392805;19;20018;-80
2023/02/04 08:24:35;;;;;;;18.70;6.05;;;5.90;30.10;;;;;;7388226;19;20011;-79
2023/02/04 08:27:08;;;;;;;15.70;5.93;;;5.90;30.30;;;;;;7388466;19;20041;-79
2023/02/04 08:29:37;;;;;;;17.48;6.68;;;5.90;30.40;;;;;;7386653;19;20019;-79
2023/02/04 08:32:08;;;;;;;22.25;6.88;;;5.90;30.40;;;;;;7387413;19;20045;-79
2023/02/04 08:34:38;;;;;;;18.17;6.88;;;5.90;30.80;;;;;;7388352;19;20039;-79
2023/02/04 08:37:08;;;;;;;12.02;6.88;;;5.90;30.90;;;;;;7386706;19;20086;-78
2023/02/04 08:39:39;;;;;;;18.38;7.05;;;5.90;31.50;;;;;;7386207;19;20014;-79
2023/02/04 08:42:11;;;;;;;17.60;7.35;;;5.90;32.40;;;;;;7386249;19;20014;-79
2023/02/04 08:44:41;;;;;;;20.48;6.70;;;5.80;33.60;;;;;;7388332;19;20024;-78
2023/02/04 08:47:11;;;;;;;18.95;7.05;;;5.90;34.00;;;;;;7387717;19;20380;-79
2023/02/04 08:49:41;;;;;;;18.85;7.60;;;5.80;33.30;;;;;;7386107;19;20105;-79
2023/02/04 08:52:11;;;;;;;18.75;6.90;;;5.90;33.80;;;;;;7386329;19;20021;-79
2023/02/04 08:54:41;;;;;;;18.73;6.75;;;6.00;34.00;;;;;;7390446;19;20007;-78
2023/02/04 08:57:14;;;;;;;18.20;7.70;;;5.90;33.40;;;;;;7390251;19;20014;-79
2023/02/04 08:59:44;;;;;;;19.20;6.95;;;6.00;34.10;;;;;;7392717;19;20019;-80
2023/02/04 09:02:14;;;;;;;13.13;7.57;;;5.90;33.00;;;;;;7394992;19;20423;-79
2023/02/04 09:04:44;;;;;;;16.90;8.05;;;6.00;33.60;;;;;;7394690;19;20027;-79
2023/02/04 09:07:14;;;;;;;16.90;8.70;;;6.00;32.30;;;;;;7394860;19;20028;-79
2023/02/04 09:09:43;;;;;;;27.00;10.30;;;6.10;32.20;;;;;;7391985;19;20077;-79
2023/02/04 09:12:16;;;;;;;24.92;9.23;;;6.10;30.60;;;;;;7364915;19;20011;-79
2023/02/04 09:14:46;;;;;;;21.98;11.02;;;6.20;31.20;;;;;;7369734;19;20021;-80
2023/02/04 09:17:15;;;;;;;21.40;8.63;;;6.30;30.90;;;;;;7391678;19;20014;-79
2023/02/04 09:19:45;;;;;;;17.60;8.55;;;6.30;28.40;;;;;;7363705;19;20126;-79
2023/02/04 09:22:15;;;;;;;17.40;8.80;;;6.40;28.80;;;;;;7366361;19;20014;-79
2023/02/04 09:24:45;;;;;;;19.75;8.70;;;6.60;28.10;;;;;;7365697;19;20051;-79
2023/02/04 09:27:18;;;;;;;21.08;6.63;;;6.70;28.40;;;;;;7366544;19;20014;-79
2023/02/04 09:29:48;;;;;;;16.75;8.02;;;6.70;24.80;;;;;;7363943;19;20003;-79
2023/02/04 09:32:18;;;;;;;21.40;6.63;;;6.60;21.70;;;;;;7386259;19;20018;-79
2023/02/04 09:34:47;;;;;;;14.52;5.85;;;6.80;20.70;;;;;;7365504;19;20484;-80
2023/02/04 09:37:17;;;;;;;17.63;5.82;;;7.00;16.80;;;;;;7365494;19;20014;-80
2023/02/04 09:39:47;;;;;;;15.90;5.25;;;7.10;11.50;;;;;;7365492;19;20021;-79
2023/02/04 09:42:20;;;;;;;14.18;4.88;;;7.30;11.10;;;;;;7364444;19;20015;-79
2023/02/04 09:44:50;;;;;;;18.98;5.55;;;7.40;5.60;;;;;;7365920;19;20096;-79
2023/02/04 09:47:23;;;;;;;12.73;4.40;;;7.40;4.80;;;;;;7388115;19;20728;-79
2023/02/04 09:49:53;;;;;;;21.27;5.05;;;7.30;1.00;;;;;;7363359;19;20018;-79
2023/02/04 09:52:23;;;;;;;13.35;4.70;;;7.40;1.00;;;;;;7363971;19;20144;-79
2023/02/04 09:54:53;;;;;;;15.55;3.70;;;7.30;1.00;;;;;;7364534;19;20015;-78
2023/02/04 09:57:25;;;;;;;14.40;4.85;;;7.30;1.00;;;;;;7365170;19;20010;-79
2023/02/04 09:59:55;;;;;;;15.20;4.28;;;7.40;1.00;;;;;;7363865;19;20402;-79
2023/02/04 10:02:28;;;;;;;14.70;5.32;;;7.20;1.00;;;;;;7386198;19;20018;-79
2023/02/04 10:04:59;;;;;;;18.30;4.25;;;7.20;1.00;;;;;;7364083;19;20538;-79
2023/02/04 10:07:31;;;;;;;17.45;4.65;;;7.20;1.00;;;;;;7362845;19;20502;-79
2023/02/04 10:10:01;;;;;;;15.55;3.97;;;7.30;1.00;;;;;;7365354;19;20007;-78
2023/02/04 10:12:34;;;;;;;9.95;3.38;;;7.20;1.00;;;;;;7367968;19;20107;-78
2023/02/04 10:15:07;;;;;;;9.35;3.50;;;7.30;1.00;;;;;;7391575;19;20219;-78
2023/02/04 10:17:37;;;;;;;11.32;3.35;;;7.20;1.00;;;;;;7392645;19;20025;-79
2023/02/04 10:20:13;;;;;;;17.50;4.05;;;7.20;1.00;;;;;;7387497;19;20020;-79
2023/02/04 10:22:43;;;;;;;14.13;3.83;;;7.40;1.00;;;;;;7392200;19;20018;-79
2023/02/04 10:25:15;;;;;;;15.55;4.45;;;7.40;1.00;;;;;;7391930;19;20014;-79
2023/02/04 10:27:56;;;;;;;16.48;4.43;;;7.30;1.00;;;;;;7392757;19;20021;-80
2023/02/04 10:30:28;;;;;;;13.43;4.13;;;7.40;1.00;;;;;;7352944;19;20018;-79
2023/02/04 10:32:59;;;;;;;13.30;3.55;;;7.50;1.00;;;;;;7384869;19;20244;-79
2023/02/04 10:35:28;;;;;;;15.20;3.53;;;7.30;1.00;;;;;;7364572;19;20562;-78
2023/02/04 10:38:07;;;;;;;14.73;3.58;;;7.20;1.00;;;;;;7369580;19;20417;-78
2023/02/04 10:40:37;;;;;;;10.68;3.05;;;7.20;1.00;;;;;;7362581;19;20090;-77
2023/02/04 10:43:17;;;;;;;15.35;3.80;;;7.20;1.00;;;;;;7386619;19;20021;-79
2023/02/04 10:45:49;;;;;;;15.88;3.65;;;7.30;1.00;;;;;;7384349;19;20018;-78
2023/02/04 10:48:20;;;;;;;14.02;4.00;;;7.30;1.00;;;;;;7397215;19;20007;-79
2023/02/04 10:50:50;;;;;;;14.85;3.90;;;7.40;1.00;;;;;;7400084;19;19999;-78
2023/02/04 10:56:05;;;;;;;9.68;3.10;;;7.40;1.00;;;;;;7363826;19;20011;-79
2023/02/04 10:58:38;;;;;;;14.38;3.35;;;7.30;1.00;;;;;;7363576;19;20014;-77
2023/02/04 11:01:11;;;;;;;16.73;3.15;;;7.30;1.00;;;;;;7385281;19;20031;-78
2023/02/04 11:03:43;;;;;;;16.55;3.78;;;7.40;1.00;;;;;;7363225;19;20018;-78
2023/02/04 11:06:21;;;;;;;19.48;3.92;;;7.50;1.00;;;;;;7363974;19;20007;-79
2023/02/04 11:08:54;;;;;;;16.38;3.40;;;7.40;1.00;;;;;;7363860;19;20049;-79
2023/02/04 11:11:26;;;;;;;15.77;3.78;;;7.50;1.00;;;;;;7361016;19;20427;-79
2023/02/04 11:14:03;;;;;;;19.80;3.40;;;7.60;1.00;;;;;;7363642;19;20014;-78
2023/02/04 11:16:35;;;;;;;13.32;3.22;;;7.50;1.00;;;;;;7364810;19;20119;-78
2023/02/04 11:19:07;;;;;;;13.63;3.42;;;7.50;1.00;;;;;;7384587;19;20014;-79
2023/02/04 11:21:46;;;;;;;12.23;2.78;;;7.60;1.00;;;;;;7364374;19;20345;-78
2023/02/04 11:24:27;;;;;;;8.52;2.65;;;7.70;1.00;;;;;;7364128;19;20025;-78
2023/02/04 11:27:08;;;;;;;19.15;3.33;;;7.80;1.00;;;;;;7365618;19;20491;-79
2023/02/04 11:29:41;;;;;;;12.60;3.53;;;7.90;1.00;;;;;;7365119;19;20090;-78
2023/02/04 11:32:29;;;;;;;14.05;3.58;;;7.90;1.00;;;;;;7391186;19;20125;-78
2023/02/04 11:35:21;;;;;;;15.57;3.15;;;7.80;1.00;;;;;;7391688;19;20074;-78
2023/02/04 11:37:51;;;;;;;15.25;4.25;;;7.80;1.00;;;;;;7391897;19;20009;-79
2023/02/04 11:40:30;;;;;;;16.02;3.28;;;7.90;1.00;;;;;;7390538;19;20018;-80
2023/02/04 11:43:02;;;;;;;15.30;3.67;;;7.70;1.00;;;;;;7391309;19;20015;-79
2023/02/04 11:45:37;;;;;;;15.93;3.80;;;7.80;1.00;;;;;;7391993;19;20482;-79
2023/02/04 11:48:15;;;;;;;13.15;3.55;;;7.90;1.00;;;;;;7392346;19;20482;-79
2023/02/04 11:50:57;;;;;;;12.85;3.45;;;8.20;1.00;;;;;;7389087;19;20014;-79
2023/02/04 11:53:31;;;;;;;11.60;3.22;;;8.20;1.00;;;;;;7387784;19;20385;-79
2023/02/04 11:56:01;;;;;;;11.20;3.38;;;8.30;1.00;;;;;;7391253;19;20018;-78
2023/02/04 11:58:32;;;;;;;10.82;2.88;;;8.50;1.00;;;;;;7390912;19;20081;-78
2023/02/04 12:01:07;;;;;;;12.35;2.65;;;8.50;1.00;;;;;;7390710;19;20084;-79
2023/02/04 12:03:50;;;;;;;12.55;2.63;;;8.30;1.00;;;;;;7389149;19;20705;-78
2023/02/04 12:06:25;;;;;;;12.48;2.70;;;8.20;1.00;;;;;;7391228;19;20018;-79
2023/02/04 12:09:06;;;;;;;12.40;3.45;;;8.30;1.00;;;;;;7390996;19;20014;-79
2023/02/04 12:11:36;;;;;;;15.07;3.60;;;8.50;1.00;;;;;;7391154;19;20081;-79
2023/02/04 12:14:11;;;;;;;11.65;2.65;;;8.50;1.00;;;;;;7393308;19;20027;-81
2023/02/04 12:16:48;;;;;;;10.88;2.92;;;8.30;1.00;;;;;;7389265;19;20421;-78
2023/02/04 12:19:18;;;;;;;10.23;2.47;;;8.20;1.00;;;;;;7389117;19;20018;-80
2023/02/04 12:21:47;;;;;;;9.80;2.40;;;8.10;1.00;;;;;;7389763;19;20022;-80
2023/02/04 12:24:17;;;;;;;14.50;3.67;;;8.00;1.00;;;;;;7391533;19;20014;-80
2023/02/04 12:26:47;;;;;;;16.45;4.05;;;7.90;1.00;;;;;;7389877;19;20427;-79
2023/02/04 12:29:17;;;;;;;17.23;3.53;;;7.80;1.00;;;;;;7389088;19;20057;-80
2023/02/04 12:31:49;;;;;;;17.08;3.80;;;7.90;1.00;;;;;;7394288;19;20032;-79
2023/02/04 12:34:20;;;;;;;12.63;2.85;;;7.90;1.00;;;;;;7394143;19;20014;-79
2023/02/04 12:36:49;;;;;;;13.98;3.80;;;7.80;1.00;;;;;;7396719;19;20015;-79
2023/02/04 12:39:19;;;;;;;17.52;4.80;;;7.70;1.00;;;;;;7394112;19;20518;-78
2023/02/04 12:41:49;;;;;;;14.55;3.58;;;7.80;1.00;;;;;;7395418;19;20078;-80
2023/02/04 12:44:19;;;;;;;11.73;3.13;;;7.70;1.00;;;;;;7395829;19;20018;-78
2023/02/04 12:46:51;;;;;;;19.08;3.72;;;7.60;1.00;;;;;;7393926;19;20014;-79
2023/02/04 12:49:23;;;;;;;12.88;3.55;;;7.60;1.00;;;;;;7357735;19;20211;-78
2023/02/04 12:51:57;;;;;;;22.40;4.28;;;7.60;1.00;;;;;;7393938;19;20547;-78
2023/02/04 12:54:27;;;;;;;12.52;3.80;;;7.40;1.00;;;;;;7367654;19;20006;-79
2023/02/04 12:56:57;;;;;;;12.18;3.25;;;7.70;1.00;;;;;;7389428;19;20479;-76
2023/02/04 12:59:27;;;;;;;13.18;4.07;;;7.50;1.00;;;;;;7366792;19;20415;-79
2023/02/04 13:01:59;;;;;;;15.00;4.18;;;7.60;1.00;;;;;;7367373;19;20007;-79
2023/02/04 13:04:29;;;;;;;23.15;5.38;;;7.60;1.00;;;;;;7367217;19;20018;-78
2023/02/04 13:06:59;;;;;;;16.55;4.72;;;7.90;1.00;;;;;;7368935;19;20006;-79
2023/02/04 13:09:31;;;;;;;16.88;4.13;;;7.70;1.00;;;;;;7368890;19;20014;-78
2023/02/04 13:12:01;;;;;;;15.20;4.80;;;7.90;1.00;;;;;;7381762;19;20024;-78
2023/02/04 13:14:31;;;;;;;9.82;3.50;;;8.20;1.00;;;;;;7391143;19;20010;-79
2023/02/04 13:17:03;;;;;;;16.58;3.17;;;8.30;1.00;;;;;;7366432;19;20022;-79